Time;durP1;ratioP1;P1;durP2;ratioP2;P2;SDS_P1;SDS_P2;PMS_P1;PMS_P2;Temp;Humidity;BMP_temperature;BMP_pressure;BME280_temperature;BME280_humidity;BME280_pressure;Samples;Min_cycle;Max_cycle;Signal;HPM_P1;HPM_P2
2023/12/10 00:00:31;;;;;;;27.60;19.63;;;7.00;99.90;;;;;;5066357;28;20508;-62
2023/12/10 00:02:57;;;;;;;28.47;18.60;;;7.00;99.90;;;;;;5066830;28;20049;-63
2023/12/10 00:05:23;;;;;;;27.07;19.20;;;7.00;99.90;;;;;;5064621;28;20037;-63
2023/12/10 00:07:48;;;;;;;28.30;18.60;;;7.00;99.90;;;;;;5052044;28;20041;-63
2023/12/10 00:10:14;;;;;;;27.67;19.17;;;7.00;99.90;;;;;;5052647;28;20048;-62
2023/12/10 00:12:40;;;;;;;27.43;18.03;;;6.90;99.90;;;;;;5052130;28;20043;-62
2023/12/10 00:15:06;;;;;;;25.40;18.40;;;6.90;99.90;;;;;;5052432;28;20045;-63
2023/12/10 00:17:32;;;;;;;24.13;16.03;;;6.90;99.90;;;;;;5052064;28;20551;-62
2023/12/10 00:19:58;;;;;;;29.40;16.03;;;6.90;99.90;;;;;;5052320;28;20066;-62
2023/12/10 00:22:23;;;;;;;24.00;14.87;;;6.90;99.90;;;;;;5052506;28;20029;-62
2023/12/10 00:24:49;;;;;;;21.93;14.70;;;6.90;99.90;;;;;;5052240;28;20481;-63
2023/12/10 00:27:15;;;;;;;22.27;14.67;;;6.90;99.90;;;;;;5051776;28;20029;-63
2023/12/10 00:29:40;;;;;;;21.70;14.97;;;6.90;99.90;;;;;;5051839;28;20082;-62
2023/12/10 00:32:06;;;;;;;21.53;14.43;;;6.90;99.90;;;;;;5052275;28;20040;-63
2023/12/10 00:34:32;;;;;;;22.00;14.97;;;6.80;99.90;;;;;;5052214;28;20080;-62
2023/12/10 00:36:58;;;;;;;21.70;15.23;;;6.80;99.90;;;;;;5051545;28;20051;-62
2023/12/10 00:39:23;;;;;;;22.90;14.90;;;6.80;99.90;;;;;;5051874;28;20048;-62
2023/12/10 00:41:49;;;;;;;23.53;16.07;;;6.80;99.90;;;;;;5052371;28;20513;-63
2023/12/10 00:44:15;;;;;;;24.87;16.23;;;6.80;99.90;;;;;;5052125;28;20060;-62
2023/12/10 00:46:40;;;;;;;24.73;17.10;;;6.80;99.90;;;;;;5051742;28;20043;-63
2023/12/10 00:49:06;;;;;;;23.60;15.13;;;6.70;99.90;;;;;;5052336;28;20051;-63
2023/12/10 00:51:32;;;;;;;22.37;15.80;;;6.80;99.90;;;;;;5052451;28;20037;-62
2023/12/10 00:53:58;;;;;;;19.77;14.80;;;6.80;99.90;;;;;;5052334;28;20088;-63
2023/12/10 00:56:23;;;;;;;20.50;14.70;;;6.70;99.90;;;;;;5051802;28;20033;-63
2023/12/10 00:58:49;;;;;;;22.03;15.00;;;6.70;99.90;;;;;;5051905;28;20041;-63
2023/12/10 01:01:15;;;;;;;21.73;15.27;;;6.70;99.90;;;;;;5051528;28;20052;-62
2023/12/10 01:03:40;;;;;;;21.47;15.23;;;6.70;99.90;;;;;;5052242;28;20033;-62
2023/12/10 01:06:08;;;;;;;24.60;15.10;;;6.70;99.90;;;;;;5051903;28;20102;-64
2023/12/10 01:08:33;;;;;;;23.23;16.17;;;6.70;99.90;;;;;;5051785;28;20607;-62
2023/12/10 01:10:59;;;;;;;20.63;14.20;;;6.70;99.90;;;;;;5052471;28;20180;-62
2023/12/10 01:13:25;;;;;;;23.73;15.67;;;6.70;99.90;;;;;;5052014;28;20048;-62
2023/12/10 01:15:54;;;;;;;27.07;14.53;;;6.70;99.90;;;;;;5051651;28;20033;-63
2023/12/10 01:18:21;;;;;;;20.43;14.30;;;6.60;99.90;;;;;;5051469;28;20102;-63
2023/12/10 01:20:46;;;;;;;21.00;15.47;;;6.60;99.90;;;;;;5051873;28;20060;-63
2023/12/10 01:23:14;;;;;;;23.57;14.80;;;6.60;99.90;;;;;;5051421;28;20021;-63
2023/12/10 01:25:40;;;;;;;18.70;14.37;;;6.60;99.90;;;;;;5053339;28;20029;-63
2023/12/10 01:28:06;;;;;;;24.30;15.97;;;6.70;99.90;;;;;;5055585;28;20025;-63
2023/12/10 01:30:32;;;;;;;21.43;16.17;;;6.60;99.90;;;;;;5055157;28;20481;-62
2023/12/10 01:32:58;;;;;;;20.77;14.37;;;6.60;99.90;;;;;;5055328;28;20125;-63
2023/12/10 01:35:24;;;;;;;21.10;15.20;;;6.60;99.90;;;;;;5054849;28;20041;-64
2023/12/10 01:37:51;;;;;;;23.20;15.40;;;6.60;99.90;;;;;;5054584;28;20032;-63
2023/12/10 01:40:16;;;;;;;21.53;14.87;;;6.60;99.90;;;;;;5054910;28;20111;-62
2023/12/10 01:42:49;;;;;;;25.27;15.37;;;6.60;99.90;;;;;;5055438;28;20433;-62
2023/12/10 01:45:15;;;;;;;21.38;14.90;;;6.60;99.90;;;;;;5055275;28;20033;-62
2023/12/10 01:47:45;;;;;;;22.03;15.80;;;6.60;99.90;;;;;;5054960;28;20108;-62
2023/12/10 01:50:12;;;;;;;22.43;15.30;;;6.60;99.90;;;;;;5055010;28;20040;-62
2023/12/10 01:52:43;;;;;;;23.97;15.93;;;6.60;99.90;;;;;;5054555;28;20125;-62
2023/12/10 01:55:09;;;;;;;25.60;16.10;;;6.60;99.90;;;;;;5054961;28;20037;-63
2023/12/10 01:57:35;;;;;;;26.73;15.60;;;6.60;99.90;;;;;;5054346;28;20036;-64
2023/12/10 02:00:05;;;;;;;22.63;16.20;;;6.60;99.90;;;;;;5052693;28;20408;-63
2023/12/10 02:02:32;;;;;;;20.70;15.17;;;6.60;99.90;;;;;;5052475;28;20519;-63
2023/12/10 02:05:04;;;;;;;23.37;16.00;;;6.60;99.90;;;;;;5053712;28;20041;-63
2023/12/10 02:07:30;;;;;;;26.27;16.48;;;6.50;99.90;;;;;;5054533;28;20067;-63
2023/12/10 02:09:56;;;;;;;23.13;16.33;;;6.50;99.90;;;;;;5053786;28;20061;-62
2023/12/10 02:12:22;;;;;;;23.67;15.17;;;6.60;99.90;;;;;;5053124;28;20033;-62
2023/12/10 02:14:48;;;;;;;23.17;15.43;;;6.50;99.90;;;;;;5054499;28;20409;-62
2023/12/10 02:17:14;;;;;;;23.23;17.00;;;6.60;99.90;;;;;;5052297;28;20373;-64
2023/12/10 02:19:39;;;;;;;20.27;15.13;;;6.50;99.90;;;;;;5054667;28;20070;-63
2023/12/10 02:22:05;;;;;;;22.70;15.20;;;6.50;99.90;;;;;;5054171;28;20116;-63
2023/12/10 02:24:52;;;;;;;24.23;16.60;;;6.50;99.90;;;;;;5054507;28;20540;-62
2023/12/10 02:27:21;;;;;;;22.33;16.27;;;6.60;99.90;;;;;;5054548;28;20033;-63
2023/12/10 02:29:49;;;;;;;24.60;16.70;;;6.50;99.90;;;;;;5054157;28;20033;-64
2023/12/10 02:32:14;;;;;;;23.37;16.00;;;6.50;99.90;;;;;;5054306;28;20025;-62
2023/12/10 02:34:40;;;;;;;22.23;15.17;;;6.50;99.90;;;;;;5052997;28;20647;-63
2023/12/10 02:37:06;;;;;;;23.77;16.13;;;6.50;99.90;;;;;;5052645;28;20051;-62
2023/12/10 02:39:32;;;;;;;23.87;16.57;;;6.60;99.90;;;;;;5054460;28;20106;-63
2023/12/10 02:41:57;;;;;;;24.17;16.40;;;6.60;99.90;;;;;;5053866;28;20076;-63
2023/12/10 02:44:23;;;;;;;23.00;15.33;;;6.60;99.90;;;;;;5053653;28;20417;-63
2023/12/10 02:46:49;;;;;;;23.53;16.20;;;6.60;99.90;;;;;;5054275;28;20469;-62
2023/12/10 02:49:15;;;;;;;22.30;15.70;;;6.60;99.90;;;;;;5054284;28;20033;-63
2023/12/10 02:51:41;;;;;;;22.93;15.67;;;6.60;99.90;;;;;;5055079;28;20029;-64
2023/12/10 02:54:07;;;;;;;24.57;16.50;;;6.60;99.90;;;;;;5070903;28;20045;-62
2023/12/10 02:56:33;;;;;;;25.43;16.57;;;6.50;99.90;;;;;;5071256;28;20445;-63
2023/12/10 02:58:59;;;;;;;24.93;16.77;;;6.60;99.90;;;;;;5073725;28;20040;-63
2023/12/10 03:01:25;;;;;;;22.97;15.67;;;6.60;99.90;;;;;;5073721;28;20396;-63
2023/12/10 03:03:51;;;;;;;22.67;16.97;;;6.50;99.90;;;;;;5073749;28;20040;-62
2023/12/10 03:06:16;;;;;;;26.43;17.20;;;6.50;99.90;;;;;;5073721;28;20044;-62
2023/12/10 03:08:42;;;;;;;22.03;15.67;;;6.60;99.90;;;;;;5072849;28;20052;-63
2023/12/10 03:11:08;;;;;;;22.13;14.77;;;6.50;99.90;;;;;;5072357;28;20036;-63
2023/12/10 03:13:33;;;;;;;19.93;14.27;;;6.50;99.90;;;;;;5073721;28;20040;-62
2023/12/10 03:15:59;;;;;;;16.40;11.77;;;6.50;99.90;;;;;;5074122;28;20499;-63
2023/12/10 03:18:27;;;;;;;17.30;10.97;;;6.50;99.90;;;;;;5073573;28;20456;-63
2023/12/10 03:20:53;;;;;;;13.77;10.37;;;6.50;99.90;;;;;;5072667;28;20499;-63
2023/12/10 03:23:19;;;;;;;13.73;9.07;;;6.50;99.90;;;;;;5073135;28;20040;-62
2023/12/10 03:25:45;;;;;;;12.87;9.60;;;6.40;99.90;;;;;;5073543;28;20115;-63
2023/12/10 03:28:11;;;;;;;11.70;9.43;;;6.50;99.90;;;;;;5073343;28;20116;-62
2023/12/10 03:30:36;;;;;;;12.20;8.53;;;6.40;99.90;;;;;;5072855;28;20607;-62
2023/12/10 03:33:02;;;;;;;9.97;8.00;;;6.40;99.90;;;;;;5073144;28;20047;-62
2023/12/10 03:35:28;;;;;;;13.13;8.33;;;6.40;99.90;;;;;;5072642;28;20072;-63
2023/12/10 03:37:53;;;;;;;11.63;7.43;;;6.30;99.90;;;;;;5072361;28;20123;-64
2023/12/10 03:40:19;;;;;;;9.20;7.53;;;6.40;99.90;;;;;;5072124;28;20040;-62
2023/12/10 03:42:45;;;;;;;11.17;8.23;;;6.30;99.90;;;;;;5073187;28;20098;-63
2023/12/10 03:45:11;;;;;;;11.03;8.67;;;6.30;99.90;;;;;;5072957;28;20094;-62
2023/12/10 03:47:37;;;;;;;10.93;8.03;;;6.30;99.90;;;;;;5072073;28;20039;-62
2023/12/10 03:50:04;;;;;;;11.23;8.10;;;6.30;99.90;;;;;;5054567;28;20040;-62
2023/12/10 03:52:29;;;;;;;11.40;8.10;;;6.40;99.90;;;;;;5073138;28;20409;-63
2023/12/10 03:54:55;;;;;;;12.70;8.87;;;6.30;99.90;;;;;;5072876;28;20045;-62
2023/12/10 03:57:21;;;;;;;10.80;8.00;;;6.30;99.90;;;;;;5072076;28;20174;-62
2023/12/10 03:59:47;;;;;;;9.37;7.53;;;6.40;99.90;;;;;;5072685;28;20044;-63
2023/12/10 04:02:13;;;;;;;11.60;8.27;;;6.40;99.90;;;;;;5072853;28;20032;-63
2023/12/10 04:04:39;;;;;;;13.30;9.90;;;6.40;99.90;;;;;;5072116;28;20377;-63
2023/12/10 04:07:04;;;;;;;15.87;11.33;;;6.40;99.90;;;;;;5070376;28;20035;-62
2023/12/10 04:09:30;;;;;;;16.30;12.00;;;6.40;99.90;;;;;;5071398;28;20039;-62
2023/12/10 04:11:59;;;;;;;17.90;12.20;;;6.40;99.90;;;;;;5071929;28;20123;-63
2023/12/10 04:14:25;;;;;;;18.00;13.27;;;6.40;99.90;;;;;;5072662;28;20084;-63
2023/12/10 04:16:51;;;;;;;15.87;11.83;;;6.40;99.90;;;;;;5072947;28;20059;-63
2023/12/10 04:19:17;;;;;;;17.60;12.63;;;6.40;99.90;;;;;;5071869;28;20099;-62
2023/12/10 04:21:42;;;;;;;17.30;11.73;;;6.40;99.90;;;;;;5072322;28;20028;-63
2023/12/10 04:24:08;;;;;;;18.23;12.03;;;6.40;99.90;;;;;;5072232;28;20032;-62
2023/12/10 04:26:34;;;;;;;17.37;12.87;;;6.30;99.90;;;;;;5072553;28;20116;-63
2023/12/10 04:29:00;;;;;;;16.67;12.87;;;6.40;99.90;;;;;;5072486;28;20511;-63
2023/12/10 04:31:26;;;;;;;19.57;12.00;;;6.30;99.90;;;;;;5072515;28;20029;-62
2023/12/10 04:33:52;;;;;;;15.87;11.47;;;6.40;99.90;;;;;;5072449;28;20047;-62
2023/12/10 04:36:17;;;;;;;18.20;12.77;;;6.40;99.90;;;;;;5072787;28;20438;-62
2023/12/10 04:38:43;;;;;;;17.50;12.07;;;6.40;99.90;;;;;;5072889;28;20043;-62
2023/12/10 04:41:09;;;;;;;15.10;11.37;;;6.30;99.90;;;;;;5079064;23;20483;-63
2023/12/10 04:43:35;;;;;;;14.70;11.17;;;6.40;99.90;;;;;;5072053;28;20033;-63
2023/12/10 04:46:00;;;;;;;15.97;10.80;;;6.40;99.90;;;;;;5071301;28;20399;-63
2023/12/10 04:48:26;;;;;;;15.63;11.63;;;6.40;99.90;;;;;;5071767;28;20039;-62
2023/12/10 04:50:52;;;;;;;15.50;10.63;;;6.40;99.90;;;;;;5071341;28;20036;-63
2023/12/10 04:53:18;;;;;;;15.47;10.40;;;6.40;99.90;;;;;;5070501;28;20062;-63
2023/12/10 04:55:44;;;;;;;13.23;9.43;;;6.40;99.90;;;;;;5071989;28;20469;-62
2023/12/10 04:58:10;;;;;;;15.60;9.97;;;6.40;99.90;;;;;;5072305;28;20029;-63
2023/12/10 05:00:35;;;;;;;13.60;9.90;;;6.40;99.90;;;;;;5073937;28;20037;-62
2023/12/10 05:03:01;;;;;;;12.83;9.57;;;6.40;99.90;;;;;;5076125;28;20031;-63
2023/12/10 05:05:27;;;;;;;12.97;8.97;;;6.40;99.90;;;;;;5076426;28;20082;-62
2023/12/10 05:07:52;;;;;;;11.77;8.40;;;6.40;99.90;;;;;;5076379;28;20112;-63
2023/12/10 05:10:18;;;;;;;11.17;7.67;;;6.30;99.90;;;;;;5058126;28;20044;-62
2023/12/10 05:12:44;;;;;;;8.70;7.03;;;6.30;99.90;;;;;;5076156;28;20068;-62
2023/12/10 05:15:10;;;;;;;7.70;6.13;;;6.30;99.90;;;;;;5074998;28;20075;-63
2023/12/10 05:17:35;;;;;;;9.93;6.77;;;6.30;99.90;;;;;;5075737;28;20086;-62
2023/12/10 05:20:02;;;;;;;9.13;6.70;;;6.30;99.90;;;;;;5075998;28;20031;-62
2023/12/10 05:22:28;;;;;;;9.40;6.50;;;6.30;99.90;;;;;;5075868;28;20492;-62
2023/12/10 05:24:54;;;;;;;8.03;5.97;;;6.30;99.90;;;;;;5075799;28;20040;-63
2023/12/10 05:27:20;;;;;;;9.53;6.77;;;6.30;99.90;;;;;;5075738;28;20043;-63
2023/12/10 05:29:45;;;;;;;11.17;7.87;;;6.30;99.90;;;;;;5075516;28;20120;-62
2023/12/10 05:32:11;;;;;;;11.27;8.50;;;6.30;99.90;;;;;;5075186;28;20067;-63
2023/12/10 05:34:37;;;;;;;9.83;7.70;;;6.30;99.90;;;;;;5076020;28;20135;-62
2023/12/10 05:37:02;;;;;;;10.27;8.60;;;6.30;99.90;;;;;;5061341;28;20442;-63
2023/12/10 05:39:28;;;;;;;15.53;10.10;;;6.30;99.90;;;;;;5074952;28;20044;-63
2023/12/10 05:41:54;;;;;;;15.07;10.30;;;6.30;99.90;;;;;;5075548;28;20120;-62
2023/12/10 05:44:20;;;;;;;15.73;10.43;;;6.30;99.90;;;;;;5075556;28;20116;-63
2023/12/10 05:46:45;;;;;;;15.00;10.77;;;6.30;99.90;;;;;;5075336;28;20076;-63
2023/12/10 05:49:11;;;;;;;15.67;11.17;;;6.30;99.90;;;;;;5075342;28;20029;-62
2023/12/10 05:51:37;;;;;;;16.03;11.70;;;6.30;99.90;;;;;;5075574;28;20033;-63
2023/12/10 05:54:03;;;;;;;15.57;11.13;;;6.30;99.90;;;;;;5075486;28;20044;-62
2023/12/10 05:56:28;;;;;;;13.83;10.77;;;6.30;99.90;;;;;;5075077;28;20441;-62
2023/12/10 05:58:54;;;;;;;14.83;10.80;;;6.30;99.90;;;;;;5075116;28;20044;-62
2023/12/10 06:01:20;;;;;;;14.80;11.17;;;6.30;99.90;;;;;;5074147;28;20028;-63
2023/12/10 06:03:46;;;;;;;14.90;11.33;;;6.30;99.90;;;;;;5074553;28;20573;-62
2023/12/10 06:06:12;;;;;;;14.47;10.93;;;6.30;99.90;;;;;;5075101;28;20055;-63
2023/12/10 06:08:39;;;;;;;14.20;10.63;;;6.30;99.90;;;;;;5075154;28;20037;-62
2023/12/10 06:11:05;;;;;;;14.10;10.87;;;6.30;99.90;;;;;;5073991;28;20033;-62
2023/12/10 06:13:30;;;;;;;13.43;10.63;;;6.40;99.90;;;;;;5056936;28;20084;-62
2023/12/10 06:15:57;;;;;;;14.03;10.27;;;6.40;99.90;;;;;;5074000;28;20042;-63
2023/12/10 06:18:23;;;;;;;13.10;10.43;;;6.40;99.90;;;;;;5074564;28;20021;-63
2023/12/10 06:20:49;;;;;;;12.80;10.17;;;6.30;99.90;;;;;;5074950;28;20039;-62
2023/12/10 06:23:15;;;;;;;12.30;10.37;;;6.40;99.90;;;;;;5056755;28;20036;-63
2023/12/10 06:25:41;;;;;;;14.23;10.43;;;6.40;99.90;;;;;;5074694;28;20102;-62
2023/12/10 06:28:06;;;;;;;13.23;9.80;;;6.40;99.90;;;;;;5074832;28;20488;-63
2023/12/10 06:30:32;;;;;;;13.27;9.90;;;6.40;99.90;;;;;;5074673;28;20044;-63
2023/12/10 06:32:58;;;;;;;12.37;9.67;;;6.40;99.90;;;;;;5073639;28;20480;-62
2023/12/10 06:35:23;;;;;;;13.80;10.50;;;6.40;99.90;;;;;;5074140;28;20395;-62
2023/12/10 06:37:49;;;;;;;14.93;10.20;;;6.30;99.90;;;;;;5072187;28;20115;-63
2023/12/10 06:40:15;;;;;;;13.07;9.57;;;6.40;99.90;;;;;;5073500;28;20028;-62
2023/12/10 06:42:41;;;;;;;12.17;9.87;;;6.40;99.90;;;;;;5072731;28;20271;-63
2023/12/10 06:45:07;;;;;;;10.00;8.73;;;6.40;99.90;;;;;;5069790;28;20036;-63
2023/12/10 06:47:33;;;;;;;12.97;10.40;;;6.40;99.90;;;;;;5071689;28;20032;-63
2023/12/10 06:49:59;;;;;;;12.97;10.17;;;6.40;99.90;;;;;;5074404;28;20029;-62
2023/12/10 06:52:25;;;;;;;15.43;10.47;;;6.40;99.90;;;;;;5074056;28;20035;-63
2023/12/10 06:54:51;;;;;;;17.03;11.93;;;6.40;99.90;;;;;;5073944;28;20120;-62
2023/12/10 06:57:17;;;;;;;17.27;11.23;;;6.40;99.90;;;;;;5073890;28;20032;-62
2023/12/10 06:59:43;;;;;;;14.13;10.83;;;6.40;99.90;;;;;;5072033;28;20567;-62
2023/12/10 07:02:09;;;;;;;13.77;10.40;;;6.40;99.90;;;;;;5071507;28;20094;-62
2023/12/10 07:04:35;;;;;;;12.43;9.70;;;6.40;99.90;;;;;;5073832;28;20039;-63
2023/12/10 07:07:01;;;;;;;13.60;9.60;;;6.40;99.90;;;;;;5073877;28;21059;-62
2023/12/10 07:09:27;;;;;;;12.40;10.07;;;6.50;99.90;;;;;;5073959;28;20183;-62
2023/12/10 07:11:53;;;;;;;15.07;10.53;;;6.40;99.90;;;;;;5073896;28;20039;-62
2023/12/10 07:14:19;;;;;;;11.80;8.93;;;6.40;99.90;;;;;;5073692;28;20454;-63
2023/12/10 07:16:44;;;;;;;11.40;9.47;;;6.40;99.90;;;;;;5071923;28;20070;-63
2023/12/10 07:19:11;;;;;;;12.50;9.37;;;6.40;99.90;;;;;;5072827;28;20044;-62
2023/12/10 07:21:37;;;;;;;12.43;9.80;;;6.40;99.90;;;;;;5072731;28;20057;-63
2023/12/10 07:24:03;;;;;;;12.47;10.30;;;6.40;99.90;;;;;;5079607;28;20075;-62
2023/12/10 07:26:29;;;;;;;12.50;10.00;;;6.40;99.90;;;;;;5072605;28;20075;-63
2023/12/10 07:28:55;;;;;;;14.63;11.50;;;6.40;99.90;;;;;;5071714;28;20155;-64
2023/12/10 07:31:20;;;;;;;17.43;13.07;;;6.40;99.90;;;;;;5073358;28;20063;-65
2023/12/10 07:33:46;;;;;;;17.73;13.27;;;6.40;99.90;;;;;;5070981;28;20416;-64
2023/12/10 07:36:12;;;;;;;17.50;13.07;;;6.40;99.90;;;;;;5071081;28;20031;-64
2023/12/10 07:38:38;;;;;;;17.57;12.20;;;6.40;99.90;;;;;;5071235;28;20116;-63
2023/12/10 07:41:04;;;;;;;16.83;11.87;;;6.40;99.90;;;;;;5072672;28;20044;-64
2023/12/10 07:43:31;;;;;;;18.40;12.83;;;6.40;99.90;;;;;;5070088;28;20043;-67
2023/12/10 07:45:56;;;;;;;17.03;11.23;;;6.50;99.90;;;;;;5069726;28;20032;-65
2023/12/10 07:48:22;;;;;;;15.40;11.37;;;6.50;99.90;;;;;;5070275;28;20033;-65
2023/12/10 07:50:48;;;;;;;17.30;11.53;;;6.50;99.90;;;;;;5070272;28;20045;-64
2023/12/10 07:53:17;;;;;;;16.00;11.80;;;6.40;99.90;;;;;;5072269;28;20117;-64
2023/12/10 07:55:43;;;;;;;18.73;12.33;;;6.50;99.90;;;;;;5072739;28;20040;-63
2023/12/10 07:58:09;;;;;;;15.37;12.23;;;6.50;99.90;;;;;;5084029;28;20546;-63
2023/12/10 08:00:35;;;;;;;16.13;12.10;;;6.50;99.90;;;;;;5093243;28;20032;-64
2023/12/10 08:03:01;;;;;;;19.27;12.30;;;6.50;99.90;;;;;;5093551;28;20455;-66
2023/12/10 08:05:27;;;;;;;16.17;11.77;;;6.50;99.90;;;;;;5091811;28;20028;-64
2023/12/10 08:07:53;;;;;;;17.63;11.67;;;6.60;99.90;;;;;;5072278;28;20111;-64
2023/12/10 08:10:19;;;;;;;15.33;11.30;;;6.60;99.90;;;;;;5072277;28;20459;-64
2023/12/10 08:12:44;;;;;;;17.83;10.50;;;6.60;99.90;;;;;;5072886;28;20044;-66
2023/12/10 08:15:11;;;;;;;15.90;10.47;;;6.60;99.90;;;;;;5072197;28;20477;-65
2023/12/10 08:17:36;;;;;;;14.50;10.83;;;6.70;99.90;;;;;;5072095;28;20028;-64
2023/12/10 08:20:03;;;;;;;16.67;11.33;;;6.70;99.90;;;;;;5074821;28;20048;-64
2023/12/10 08:22:29;;;;;;;15.97;11.90;;;6.70;99.90;;;;;;5072315;28;20037;-71
2023/12/10 08:24:54;;;;;;;17.37;12.13;;;6.80;99.90;;;;;;5072146;28;20028;-71
2023/12/10 08:27:20;;;;;;;21.37;14.53;;;6.80;99.90;;;;;;5072015;28;20025;-71
2023/12/10 08:29:46;;;;;;;17.77;12.80;;;6.80;99.90;;;;;;5072139;28;20025;-72
2023/12/10 08:32:12;;;;;;;17.10;12.60;;;6.80;99.90;;;;;;5072589;28;20029;-71
2023/12/10 08:34:38;;;;;;;16.47;11.70;;;6.80;99.90;;;;;;5071999;28;20131;-70
2023/12/10 08:37:04;;;;;;;16.53;11.27;;;6.80;99.90;;;;;;5077985;28;20571;-66
2023/12/10 08:39:30;;;;;;;16.23;11.37;;;6.80;99.90;;;;;;5079580;28;20111;-65
2023/12/10 08:41:56;;;;;;;15.87;11.03;;;6.80;99.90;;;;;;5078361;28;20048;-64
2023/12/10 08:44:21;;;;;;;14.37;10.70;;;6.80;99.90;;;;;;5081573;28;20028;-64
2023/12/10 08:46:47;;;;;;;13.40;9.93;;;6.80;99.90;;;;;;5089682;28;20087;-64
2023/12/10 08:49:13;;;;;;;13.63;10.20;;;6.80;99.90;;;;;;5090112;28;20113;-64
2023/12/10 08:51:39;;;;;;;14.50;9.90;;;6.90;99.90;;;;;;5084270;28;20040;-64
2023/12/10 08:54:05;;;;;;;12.80;9.50;;;6.90;99.90;;;;;;5070370;28;20040;-64
2023/12/10 08:56:30;;;;;;;11.63;8.17;;;7.00;99.90;;;;;;5072190;28;20029;-64
2023/12/10 08:58:56;;;;;;;12.30;7.63;;;7.00;99.90;;;;;;5072282;28;20056;-64
2023/12/10 09:01:22;;;;;;;12.10;8.20;;;7.00;99.90;;;;;;5074324;28;20031;-64
2023/12/10 09:03:48;;;;;;;11.30;8.40;;;7.00;99.90;;;;;;5075001;28;20053;-64
2023/12/10 09:06:13;;;;;;;11.73;8.23;;;7.00;99.90;;;;;;5072192;28;20476;-64
2023/12/10 09:08:39;;;;;;;12.27;8.33;;;7.10;99.90;;;;;;5071907;28;20035;-65
2023/12/10 09:11:05;;;;;;;12.40;7.87;;;7.10;99.90;;;;;;5072151;28;20029;-68
2023/12/10 09:13:32;;;;;;;8.83;7.00;;;7.10;99.90;;;;;;5071826;28;20037;-69
2023/12/10 09:15:58;;;;;;;11.77;7.00;;;7.10;99.90;;;;;;5072111;28;20040;-70
2023/12/10 09:18:27;;;;;;;11.13;7.30;;;7.20;99.90;;;;;;5071669;28;20484;-69
2023/12/10 09:20:54;;;;;;;10.63;6.60;;;7.20;99.90;;;;;;5085000;28;20032;-70
2023/12/10 09:23:21;;;;;;;9.93;6.83;;;7.30;99.90;;;;;;5071603;28;20032;-70
2023/12/10 09:25:47;;;;;;;9.40;7.53;;;7.30;99.90;;;;;;5072045;28;20040;-69
2023/12/10 09:28:13;;;;;;;10.23;6.97;;;7.30;99.90;;;;;;5072195;28;20032;-70
2023/12/10 09:30:38;;;;;;;12.30;7.93;;;7.40;99.90;;;;;;5071732;28;20044;-70
2023/12/10 09:33:07;;;;;;;11.83;8.20;;;7.40;99.90;;;;;;5070529;28;20700;-72
2023/12/10 09:35:33;;;;;;;8.90;6.90;;;7.40;99.90;;;;;;5069406;28;20045;-71
2023/12/10 09:38:00;;;;;;;8.23;6.63;;;7.40;99.90;;;;;;5070765;28;20052;-70
2023/12/10 09:40:26;;;;;;;11.00;7.50;;;7.40;99.90;;;;;;5071372;28;20082;-70
2023/12/10 09:42:51;;;;;;;10.17;7.20;;;7.40;99.90;;;;;;5072198;28;20496;-72
2023/12/10 09:45:17;;;;;;;14.40;8.87;;;7.50;99.90;;;;;;5072171;28;20043;-70
2023/12/10 09:47:44;;;;;;;10.17;8.17;;;7.50;99.90;;;;;;5074792;28;20033;-70
2023/12/10 09:50:10;;;;;;;9.87;7.60;;;7.50;99.90;;;;;;5075671;28;20032;-70
2023/12/10 09:52:36;;;;;;;11.80;8.43;;;7.60;99.90;;;;;;5075486;28;20443;-71
2023/12/10 09:55:02;;;;;;;9.33;6.90;;;7.60;99.90;;;;;;5074691;28;20055;-64
2023/12/10 09:57:30;;;;;;;9.30;6.33;;;7.60;99.90;;;;;;5075165;28;20036;-65
2023/12/10 09:59:56;;;;;;;9.20;7.07;;;7.60;99.90;;;;;;5072734;28;20047;-64
2023/12/10 10:02:33;;;;;;;9.53;7.30;;;7.70;99.90;;;;;;5072724;28;20029;-63
2023/12/10 10:05:00;;;;;;;9.80;7.40;;;7.70;99.90;;;;;;5074041;28;20104;-63
2023/12/10 10:07:28;;;;;;;9.40;6.33;;;7.70;99.90;;;;;;5075257;28;20036;-63
2023/12/10 10:09:54;;;;;;;8.20;6.67;;;7.70;99.90;;;;;;5074766;28;20024;-63
2023/12/10 10:12:20;;;;;;;8.67;6.53;;;7.80;99.90;;;;;;5075114;28;20381;-63
2023/12/10 10:14:56;;;;;;;9.03;6.80;;;7.80;99.90;;;;;;5074701;28;20119;-64
2023/12/10 10:17:26;;;;;;;11.37;7.73;;;7.80;99.90;;;;;;5075263;28;20104;-64
2023/12/10 10:19:51;;;;;;;8.73;6.60;;;7.80;99.90;;;;;;5074983;28;20495;-63
2023/12/10 10:22:18;;;;;;;11.30;7.17;;;7.80;99.90;;;;;;5074712;28;20024;-63
2023/12/10 10:24:43;;;;;;;10.23;7.77;;;7.90;99.90;;;;;;5074651;28;20063;-63
2023/12/10 10:27:09;;;;;;;10.97;7.70;;;7.90;99.90;;;;;;5074982;28;20396;-63
2023/12/10 10:29:35;;;;;;;11.93;7.73;;;7.90;99.90;;;;;;5074721;28;20074;-63
2023/12/10 10:32:01;;;;;;;10.53;7.83;;;8.00;99.90;;;;;;5074798;28;20033;-63
2023/12/10 10:34:28;;;;;;;9.57;7.57;;;8.00;99.90;;;;;;5074683;28;20105;-63
2023/12/10 10:36:53;;;;;;;10.60;7.97;;;8.10;99.90;;;;;;5074641;28;20085;-64
2023/12/10 10:39:19;;;;;;;10.30;7.83;;;8.10;99.90;;;;;;5074517;28;20389;-63
2023/12/10 10:41:45;;;;;;;9.40;6.93;;;8.10;99.90;;;;;;5074538;28;20041;-63
2023/12/10 10:44:11;;;;;;;10.83;7.70;;;8.20;99.90;;;;;;5074591;28;20036;-63
2023/12/10 10:46:37;;;;;;;9.70;6.83;;;8.20;99.90;;;;;;5074360;28;20108;-63
2023/12/10 10:49:03;;;;;;;12.83;7.70;;;8.30;99.90;;;;;;5071749;28;20064;-65
2023/12/10 10:51:32;;;;;;;9.43;7.53;;;8.30;99.90;;;;;;5071681;28;20102;-65
2023/12/10 10:53:58;;;;;;;9.77;7.80;;;8.40;99.90;;;;;;5073004;28;20054;-65
2023/12/10 10:56:25;;;;;;;9.50;7.20;;;8.50;99.90;;;;;;5074220;28;20071;-63
2023/12/10 10:58:51;;;;;;;11.27;7.03;;;8.60;99.90;;;;;;5074264;28;20029;-71
2023/12/10 11:01:47;;;;;;;9.13;7.00;;;8.70;99.90;;;;;;5074289;28;20032;-71
2023/12/10 11:04:15;;;;;;;10.20;7.47;;;8.70;99.90;;;;;;5058042;28;20423;-71
2023/12/10 11:06:41;;;;;;;9.13;6.53;;;8.80;99.90;;;;;;5074279;28;20035;-72
2023/12/10 11:09:07;;;;;;;9.70;7.47;;;8.90;99.90;;;;;;5074117;28;20056;-71
2023/12/10 11:11:40;;;;;;;8.27;6.63;;;9.00;99.90;;;;;;5073995;28;20068;-71
2023/12/10 11:14:22;;;;;;;9.13;6.85;;;9.10;99.90;;;;;;5071299;28;20036;-70
2023/12/10 11:17:01;;;;;;;9.15;6.75;;;9.10;99.90;;;;;;5071125;28;20047;-71
2023/12/10 11:19:28;;;;;;;9.07;6.43;;;9.20;99.90;;;;;;5071764;28;20062;-71
2023/12/10 11:21:54;;;;;;;9.17;6.97;;;9.30;99.90;;;;;;5073143;28;20465;-71
2023/12/10 11:24:20;;;;;;;9.33;6.33;;;9.40;99.90;;;;;;5073675;28;20377;-71
2023/12/10 11:26:46;;;;;;;8.30;6.03;;;9.40;99.90;;;;;;5073873;28;20043;-71
2023/12/10 11:29:12;;;;;;;9.00;6.80;;;9.50;99.90;;;;;;5073519;28;20123;-70
2023/12/10 11:31:38;;;;;;;7.77;6.50;;;9.50;99.90;;;;;;5073582;28;20104;-71
2023/12/10 11:34:04;;;;;;;8.17;6.30;;;9.60;99.90;;;;;;5073303;28;20083;-71
2023/12/10 11:36:30;;;;;;;9.93;6.77;;;9.60;99.90;;;;;;5073286;28;20032;-71
2023/12/10 11:38:56;;;;;;;8.90;6.67;;;9.60;99.90;;;;;;5073390;28;20094;-71
2023/12/10 11:41:23;;;;;;;8.60;5.67;;;9.60;99.90;;;;;;5073020;28;20044;-70
2023/12/10 11:43:49;;;;;;;9.70;5.80;;;9.70;99.90;;;;;;5073093;28;20028;-71
2023/12/10 11:46:23;;;;;;;7.93;5.83;;;9.70;99.90;;;;;;5072943;28;20052;-71
2023/12/10 11:48:53;;;;;;;9.63;6.13;;;9.60;99.90;;;;;;5073103;28;20036;-72
2023/12/10 11:51:20;;;;;;;7.47;5.83;;;9.70;99.90;;;;;;5072744;28;20123;-71
2023/12/10 11:53:46;;;;;;;8.23;5.50;;;9.70;99.90;;;;;;5072950;28;20060;-71
2023/12/10 11:56:12;;;;;;;7.10;5.43;;;9.80;99.90;;;;;;5073208;28;20037;-71
2023/12/10 11:58:41;;;;;;;6.57;5.27;;;9.80;99.90;;;;;;5073086;28;20427;-71
2023/12/10 12:01:07;;;;;;;7.00;5.10;;;9.80;99.90;;;;;;5073147;28;20378;-71
2023/12/10 12:03:34;;;;;;;6.53;5.10;;;9.80;99.90;;;;;;5072983;28;20550;-71
2023/12/10 12:06:00;;;;;;;8.23;4.70;;;9.90;99.90;;;;;;5072690;28;20032;-70
2023/12/10 12:08:27;;;;;;;8.60;5.10;;;9.90;99.90;;;;;;5072931;28;20051;-71
2023/12/10 12:10:55;;;;;;;7.67;5.77;;;10.00;99.90;;;;;;5072874;28;20039;-71
2023/12/10 12:13:21;;;;;;;6.43;5.17;;;10.00;99.90;;;;;;5072463;28;20037;-70
2023/12/10 12:15:47;;;;;;;6.77;5.17;;;10.00;99.90;;;;;;5072764;28;20145;-70
2023/12/10 12:18:13;;;;;;;6.73;4.47;;;10.00;99.90;;;;;;5072509;28;20028;-70
2023/12/10 12:20:39;;;;;;;8.50;4.50;;;10.00;99.90;;;;;;5072408;28;20035;-71
2023/12/10 12:23:05;;;;;;;6.47;5.10;;;10.00;99.90;;;;;;5072934;28;20039;-70
2023/12/10 12:25:34;;;;;;;6.00;5.03;;;10.00;99.90;;;;;;5072963;28;20048;-70
2023/12/10 12:28:06;;;;;;;7.37;5.80;;;10.10;99.90;;;;;;5072581;28;20060;-71
2023/12/10 12:30:33;;;;;;;5.85;5.05;;;10.00;99.90;;;;;;5072818;28;20029;-70
2023/12/10 12:32:59;;;;;;;6.13;5.00;;;10.10;99.90;;;;;;5072863;28;20028;-71
2023/12/10 12:35:26;;;;;;;6.53;5.03;;;10.10;99.90;;;;;;5072392;28;20519;-70
2023/12/10 12:37:51;;;;;;;7.53;5.33;;;10.10;99.90;;;;;;5072855;28;20036;-70